sensor_id;sensor_type;location;lat;lon;timestamp;P1;durP1;ratioP1;P2;durP2;ratioP2
13855;SDS011;6998;53.608;9.958;2023-07-29T00:02:04;5.18;;;4.68;;
13855;SDS011;6998;53.608;9.958;2023-07-29T00:04:31;5.03;;;4.63;;
13855;SDS011;6998;53.608;9.958;2023-07-29T00:06:58;5.60;;;4.75;;
13855;SDS011;6998;53.608;9.958;2023-07-29T00:09:26;5.00;;;4.50;;
13855;SDS011;6998;53.608;9.958;2023-07-29T00:11:52;4.88;;;4.47;;
13855;SDS011;6998;53.608;9.958;2023-07-29T00:14:19;5.70;;;4.55;;
13855;SDS011;6998;53.608;9.958;2023-07-29T00:16:46;4.68;;;4.28;;
13855;SDS011;6998;53.608;9.958;2023-07-29T00:19:12;4.55;;;4.15;;
13855;SDS011;6998;53.608;9.958;2023-07-29T00:21:39;5.22;;;4.72;;
13855;SDS011;6998;53.608;9.958;2023-07-29T00:24:06;4.90;;;4.40;;
13855;SDS011;6998;53.608;9.958;2023-07-29T00:26:34;8.43;;;5.15;;
13855;SDS011;6998;53.608;9.958;2023-07-29T00:29:00;4.88;;;4.30;;
13855;SDS011;6998;53.608;9.958;2023-07-29T00:31:27;5.53;;;4.47;;
13855;SDS011;6998;53.608;9.958;2023-07-29T00:33:54;4.95;;;4.47;;
13855;SDS011;6998;53.608;9.958;2023-07-29T00:36:21;5.50;;;5.00;;
13855;SDS011;6998;53.608;9.958;2023-07-29T00:38:48;5.95;;;5.32;;
13855;SDS011;6998;53.608;9.958;2023-07-29T00:41:15;6.00;;;4.88;;
13855;SDS011;6998;53.608;9.958;2023-07-29T00:43:43;5.72;;;4.80;;
13855;SDS011;6998;53.608;9.958;2023-07-29T00:46:10;6.00;;;5.30;;
13855;SDS011;6998;53.608;9.958;2023-07-29T00:48:37;5.13;;;4.65;;
13855;SDS011;6998;53.608;9.958;2023-07-29T00:51:05;5.32;;;4.82;;
13855;SDS011;6998;53.608;9.958;2023-07-29T00:53:31;5.07;;;4.63;;
13855;SDS011;6998;53.608;9.958;2023-07-29T00:55:58;7.20;;;5.50;;
13855;SDS011;6998;53.608;9.958;2023-07-29T00:58:26;6.35;;;5.25;;
13855;SDS011;6998;53.608;9.958;2023-07-29T01:00:54;4.90;;;4.50;;
13855;SDS011;6998;53.608;9.958;2023-07-29T01:03:21;5.03;;;4.53;;
13855;SDS011;6998;53.608;9.958;2023-07-29T01:05:50;6.25;;;5.10;;
13855;SDS011;6998;53.608;9.958;2023-07-29T01:08:26;5.93;;;5.20;;
13855;SDS011;6998;53.608;9.958;2023-07-29T01:11:01;5.75;;;5.25;;
13855;SDS011;6998;53.608;9.958;2023-07-29T01:13:40;6.00;;;5.03;;
13855;SDS011;6998;53.608;9.958;2023-07-29T01:16:13;5.35;;;4.95;;
13855;SDS011;6998;53.608;9.958;2023-07-29T01:18:46;5.70;;;4.63;;
13855;SDS011;6998;53.608;9.958;2023-07-29T01:21:14;5.63;;;5.13;;
13855;SDS011;6998;53.608;9.958;2023-07-29T01:23:44;6.47;;;4.65;;
13855;SDS011;6998;53.608;9.958;2023-07-29T01:26:10;5.43;;;4.80;;
13855;SDS011;6998;53.608;9.958;2023-07-29T01:28:38;4.93;;;4.43;;
13855;SDS011;6998;53.608;9.958;2023-07-29T01:31:07;6.55;;;5.07;;
13855;SDS011;6998;53.608;9.958;2023-07-29T01:33:38;5.10;;;4.30;;
13855;SDS011;6998;53.608;9.958;2023-07-29T01:36:11;4.88;;;4.47;;
13855;SDS011;6998;53.608;9.958;2023-07-29T01:38:41;5.38;;;4.70;;
13855;SDS011;6998;53.608;9.958;2023-07-29T01:41:11;4.50;;;4.10;;
13855;SDS011;6998;53.608;9.958;2023-07-29T01:43:39;5.10;;;4.70;;
13855;SDS011;6998;53.608;9.958;2023-07-29T01:46:09;5.22;;;4.75;;
13855;SDS011;6998;53.608;9.958;2023-07-29T01:48:36;4.85;;;4.45;;
13855;SDS011;6998;53.608;9.958;2023-07-29T01:51:03;5.05;;;4.65;;
13855;SDS011;6998;53.608;9.958;2023-07-29T01:53:30;5.13;;;4.32;;
13855;SDS011;6998;53.608;9.958;2023-07-29T01:55:58;5.15;;;4.65;;
13855;SDS011;6998;53.608;9.958;2023-07-29T01:58:25;6.18;;;5.07;;
13855;SDS011;6998;53.608;9.958;2023-07-29T02:00:52;7.20;;;5.03;;
13855;SDS011;6998;53.608;9.958;2023-07-29T02:03:18;8.05;;;5.72;;
13855;SDS011;6998;53.608;9.958;2023-07-29T02:05:45;7.30;;;5.63;;
13855;SDS011;6998;53.608;9.958;2023-07-29T02:08:12;8.02;;;5.35;;
13855;SDS011;6998;53.608;9.958;2023-07-29T02:10:39;6.78;;;4.68;;
13855;SDS011;6998;53.608;9.958;2023-07-29T02:13:07;6.35;;;5.50;;
13855;SDS011;6998;53.608;9.958;2023-07-29T02:15:34;5.93;;;5.40;;
13855;SDS011;6998;53.608;9.958;2023-07-29T02:18:01;5.25;;;4.75;;
13855;SDS011;6998;53.608;9.958;2023-07-29T02:20:28;4.68;;;4.28;;
13855;SDS011;6998;53.608;9.958;2023-07-29T02:22:55;5.93;;;5.15;;
13855;SDS011;6998;53.608;9.958;2023-07-29T02:25:21;8.23;;;5.22;;
13855;SDS011;6998;53.608;9.958;2023-07-29T02:27:48;5.65;;;5.10;;
13855;SDS011;6998;53.608;9.958;2023-07-29T02:30:16;5.90;;;5.22;;
13855;SDS011;6998;53.608;9.958;2023-07-29T02:32:43;5.30;;;4.78;;
13855;SDS011;6998;53.608;9.958;2023-07-29T02:35:11;6.78;;;5.57;;
13855;SDS011;6998;53.608;9.958;2023-07-29T02:37:38;6.72;;;5.32;;
13855;SDS011;6998;53.608;9.958;2023-07-29T02:40:05;5.55;;;5.05;;
13855;SDS011;6998;53.608;9.958;2023-07-29T02:42:33;5.57;;;5.00;;
13855;SDS011;6998;53.608;9.958;2023-07-29T02:45:00;6.05;;;5.45;;
13855;SDS011;6998;53.608;9.958;2023-07-29T02:47:28;5.97;;;5.30;;
13855;SDS011;6998;53.608;9.958;2023-07-29T02:49:55;6.65;;;6.05;;
13855;SDS011;6998;53.608;9.958;2023-07-29T02:52:21;5.53;;;5.13;;
13855;SDS011;6998;53.608;9.958;2023-07-29T02:54:48;6.60;;;6.00;;
13855;SDS011;6998;53.608;9.958;2023-07-29T02:57:15;6.20;;;5.47;;
13855;SDS011;6998;53.608;9.958;2023-07-29T02:59:42;5.80;;;5.20;;
13855;SDS011;6998;53.608;9.958;2023-07-29T03:02:09;6.40;;;5.90;;
13855;SDS011;6998;53.608;9.958;2023-07-29T03:04:37;7.60;;;6.88;;
13855;SDS011;6998;53.608;9.958;2023-07-29T03:07:03;6.30;;;5.80;;
13855;SDS011;6998;53.608;9.958;2023-07-29T03:09:30;6.88;;;6.28;;
13855;SDS011;6998;53.608;9.958;2023-07-29T03:11:58;6.35;;;5.85;;
13855;SDS011;6998;53.608;9.958;2023-07-29T03:14:24;7.15;;;6.55;;
13855;SDS011;6998;53.608;9.958;2023-07-29T03:16:51;7.13;;;6.15;;
13855;SDS011;6998;53.608;9.958;2023-07-29T03:19:18;6.00;;;5.43;;
13855;SDS011;6998;53.608;9.958;2023-07-29T03:21:46;7.57;;;6.90;;
13855;SDS011;6998;53.608;9.958;2023-07-29T03:24:13;6.75;;;6.15;;
13855;SDS011;6998;53.608;9.958;2023-07-29T03:26:39;7.63;;;6.97;;
13855;SDS011;6998;53.608;9.958;2023-07-29T03:29:06;6.47;;;5.95;;
13855;SDS011;6998;53.608;9.958;2023-07-29T03:31:33;7.07;;;6.38;;
13855;SDS011;6998;53.608;9.958;2023-07-29T03:34:00;6.07;;;5.57;;
13855;SDS011;6998;53.608;9.958;2023-07-29T03:36:26;5.60;;;5.10;;
13855;SDS011;6998;53.608;9.958;2023-07-29T03:38:54;6.05;;;5.50;;
13855;SDS011;6998;53.608;9.958;2023-07-29T03:41:21;7.28;;;6.57;;
13855;SDS011;6998;53.608;9.958;2023-07-29T03:43:48;7.80;;;7.07;;
13855;SDS011;6998;53.608;9.958;2023-07-29T03:46:15;6.78;;;6.28;;
13855;SDS011;6998;53.608;9.958;2023-07-29T03:48:44;7.93;;;7.32;;
13855;SDS011;6998;53.608;9.958;2023-07-29T03:51:11;6.03;;;5.53;;
13855;SDS011;6998;53.608;9.958;2023-07-29T03:53:38;7.40;;;6.80;;
13855;SDS011;6998;53.608;9.958;2023-07-29T03:56:06;8.48;;;7.78;;
13855;SDS011;6998;53.608;9.958;2023-07-29T03:58:33;8.30;;;7.50;;
13855;SDS011;6998;53.608;9.958;2023-07-29T04:01:00;8.68;;;7.97;;
13855;SDS011;6998;53.608;9.958;2023-07-29T04:03:27;7.80;;;7.20;;
13855;SDS011;6998;53.608;9.958;2023-07-29T04:05:53;10.02;;;9.02;;
13855;SDS011;6998;53.608;9.958;2023-07-29T04:08:20;10.13;;;9.23;;
13855;SDS011;6998;53.608;9.958;2023-07-29T04:10:47;11.05;;;9.30;;
13855;SDS011;6998;53.608;9.958;2023-07-29T04:13:15;10.55;;;9.55;;
13855;SDS011;6998;53.608;9.958;2023-07-29T04:15:42;9.88;;;9.00;;
13855;SDS011;6998;53.608;9.958;2023-07-29T04:18:09;10.68;;;9.80;;
13855;SDS011;6998;53.608;9.958;2023-07-29T04:20:35;15.73;;;14.13;;
13855;SDS011;6998;53.608;9.958;2023-07-29T04:23:02;15.35;;;13.93;;
13855;SDS011;6998;53.608;9.958;2023-07-29T04:25:29;15.10;;;13.60;;
13855;SDS011;6998;53.608;9.958;2023-07-29T04:27:55;19.55;;;17.65;;
13855;SDS011;6998;53.608;9.958;2023-07-29T04:30:24;18.05;;;16.38;;
13855;SDS011;6998;53.608;9.958;2023-07-29T04:32:51;17.98;;;16.20;;
13855;SDS011;6998;53.608;9.958;2023-07-29T04:35:18;22.25;;;19.50;;
13855;SDS011;6998;53.608;9.958;2023-07-29T04:37:44;22.40;;;20.10;;
13855;SDS011;6998;53.608;9.958;2023-07-29T04:40:13;23.83;;;21.23;;
13855;SDS011;6998;53.608;9.958;2023-07-29T04:42:40;21.17;;;19.25;;
13855;SDS011;6998;53.608;9.958;2023-07-29T04:45:07;21.88;;;19.58;;
13855;SDS011;6998;53.608;9.958;2023-07-29T04:47:35;21.50;;;19.30;;
13855;SDS011;6998;53.608;9.958;2023-07-29T04:50:02;21.70;;;19.45;;
13855;SDS011;6998;53.608;9.958;2023-07-29T04:52:29;23.58;;;21.17;;
13855;SDS011;6998;53.608;9.958;2023-07-29T04:54:55;22.00;;;19.60;;
13855;SDS011;6998;53.608;9.958;2023-07-29T04:57:22;24.60;;;21.13;;
13855;SDS011;6998;53.608;9.958;2023-07-29T04:59:49;23.33;;;20.83;;
13855;SDS011;6998;53.608;9.958;2023-07-29T05:02:15;22.05;;;19.92;;
13855;SDS011;6998;53.608;9.958;2023-07-29T05:04:43;22.15;;;19.88;;
13855;SDS011;6998;53.608;9.958;2023-07-29T05:07:10;20.45;;;17.95;;
13855;SDS011;6998;53.608;9.958;2023-07-29T05:09:37;21.30;;;19.38;;
13855;SDS011;6998;53.608;9.958;2023-07-29T05:12:04;22.05;;;19.75;;
13855;SDS011;6998;53.608;9.958;2023-07-29T05:14:31;21.20;;;19.00;;
13855;SDS011;6998;53.608;9.958;2023-07-29T05:16:58;17.27;;;15.57;;
13855;SDS011;6998;53.608;9.958;2023-07-29T05:19:25;20.90;;;18.90;;
13855;SDS011;6998;53.608;9.958;2023-07-29T05:21:53;20.42;;;18.33;;
13855;SDS011;6998;53.608;9.958;2023-07-29T05:24:20;19.77;;;17.77;;
13855;SDS011;6998;53.608;9.958;2023-07-29T05:26:47;20.98;;;18.92;;
13855;SDS011;6998;53.608;9.958;2023-07-29T05:29:14;19.10;;;17.30;;
13855;SDS011;6998;53.608;9.958;2023-07-29T05:31:41;20.83;;;18.65;;
13855;SDS011;6998;53.608;9.958;2023-07-29T05:34:08;21.60;;;19.60;;
13855;SDS011;6998;53.608;9.958;2023-07-29T05:36:35;21.23;;;19.13;;
13855;SDS011;6998;53.608;9.958;2023-07-29T05:39:03;20.25;;;18.25;;
13855;SDS011;6998;53.608;9.958;2023-07-29T05:41:30;20.30;;;18.20;;
13855;SDS011;6998;53.608;9.958;2023-07-29T05:43:57;18.80;;;16.92;;
13855;SDS011;6998;53.608;9.958;2023-07-29T05:46:23;20.25;;;18.38;;
13855;SDS011;6998;53.608;9.958;2023-07-29T05:48:50;18.38;;;16.67;;
13855;SDS011;6998;53.608;9.958;2023-07-29T05:51:17;21.45;;;19.38;;
13855;SDS011;6998;53.608;9.958;2023-07-29T05:53:44;19.27;;;17.58;;
13855;SDS011;6998;53.608;9.958;2023-07-29T05:56:12;19.88;;;17.98;;
13855;SDS011;6998;53.608;9.958;2023-07-29T05:58:38;20.02;;;18.13;;
13855;SDS011;6998;53.608;9.958;2023-07-29T06:01:05;19.02;;;17.33;;
13855;SDS011;6998;53.608;9.958;2023-07-29T06:03:32;20.88;;;18.77;;
13855;SDS011;6998;53.608;9.958;2023-07-29T06:05:59;17.23;;;15.63;;
13855;SDS011;6998;53.608;9.958;2023-07-29T06:08:25;21.48;;;19.30;;
13855;SDS011;6998;53.608;9.958;2023-07-29T06:10:53;21.80;;;19.67;;
13855;SDS011;6998;53.608;9.958;2023-07-29T06:13:21;19.88;;;18.08;;
13855;SDS011;6998;53.608;9.958;2023-07-29T06:15:48;22.52;;;20.27;;
13855;SDS011;6998;53.608;9.958;2023-07-29T06:18:15;19.33;;;17.48;;
13855;SDS011;6998;53.608;9.958;2023-07-29T06:20:41;19.48;;;17.63;;
13855;SDS011;6998;53.608;9.958;2023-07-29T06:23:08;18.92;;;17.25;;
13855;SDS011;6998;53.608;9.958;2023-07-29T06:25:35;20.77;;;18.67;;
13855;SDS011;6998;53.608;9.958;2023-07-29T06:28:01;18.17;;;16.48;;
13855;SDS011;6998;53.608;9.958;2023-07-29T06:30:29;19.08;;;17.17;;
13855;SDS011;6998;53.608;9.958;2023-07-29T06:32:56;18.88;;;17.17;;
13855;SDS011;6998;53.608;9.958;2023-07-29T06:35:23;17.15;;;15.43;;
13855;SDS011;6998;53.608;9.958;2023-07-29T06:37:49;17.50;;;15.75;;
13855;SDS011;6998;53.608;9.958;2023-07-29T06:40:16;19.60;;;17.65;;
13855;SDS011;6998;53.608;9.958;2023-07-29T06:42:43;17.42;;;15.65;;
13855;SDS011;6998;53.608;9.958;2023-07-29T06:45:09;18.13;;;16.30;;
13855;SDS011;6998;53.608;9.958;2023-07-29T06:47:38;18.85;;;17.05;;
13855;SDS011;6998;53.608;9.958;2023-07-29T06:50:04;15.98;;;14.48;;
13855;SDS011;6998;53.608;9.958;2023-07-29T06:52:31;16.40;;;14.98;;
13855;SDS011;6998;53.608;9.958;2023-07-29T06:54:58;18.17;;;16.38;;
13855;SDS011;6998;53.608;9.958;2023-07-29T06:57:25;17.67;;;16.05;;
13855;SDS011;6998;53.608;9.958;2023-07-29T06:59:52;13.20;;;12.00;;
13855;SDS011;6998;53.608;9.958;2023-07-29T07:02:18;16.65;;;15.10;;
13855;SDS011;6998;53.608;9.958;2023-07-29T07:04:46;16.00;;;14.50;;
13855;SDS011;6998;53.608;9.958;2023-07-29T07:07:13;17.33;;;15.70;;
13855;SDS011;6998;53.608;9.958;2023-07-29T07:09:41;16.15;;;14.68;;
13855;SDS011;6998;53.608;9.958;2023-07-29T07:12:08;16.35;;;14.75;;
13855;SDS011;6998;53.608;9.958;2023-07-29T07:14:34;16.35;;;14.85;;
13855;SDS011;6998;53.608;9.958;2023-07-29T07:17:01;18.92;;;17.15;;
13855;SDS011;6998;53.608;9.958;2023-07-29T07:19:28;18.60;;;16.80;;
13855;SDS011;6998;53.608;9.958;2023-07-29T07:21:56;19.58;;;17.77;;
13855;SDS011;6998;53.608;9.958;2023-07-29T07:24:22;17.73;;;15.93;;
13855;SDS011;6998;53.608;9.958;2023-07-29T07:26:49;20.33;;;18.33;;
13855;SDS011;6998;53.608;9.958;2023-07-29T07:29:16;19.15;;;17.20;;
13855;SDS011;6998;53.608;9.958;2023-07-29T07:31:47;18.48;;;16.67;;
13855;SDS011;6998;53.608;9.958;2023-07-29T07:34:17;20.17;;;18.27;;
13855;SDS011;6998;53.608;9.958;2023-07-29T07:36:44;21.58;;;19.35;;
13855;SDS011;6998;53.608;9.958;2023-07-29T07:39:12;20.27;;;18.33;;
13855;SDS011;6998;53.608;9.958;2023-07-29T07:41:38;21.98;;;19.98;;
13855;SDS011;6998;53.608;9.958;2023-07-29T07:44:05;20.73;;;18.65;;
13855;SDS011;6998;53.608;9.958;2023-07-29T07:46:32;21.55;;;19.48;;
13855;SDS011;6998;53.608;9.958;2023-07-29T07:48:58;22.27;;;20.05;;
13855;SDS011;6998;53.608;9.958;2023-07-29T07:51:25;22.13;;;19.92;;
13855;SDS011;6998;53.608;9.958;2023-07-29T07:53:52;20.77;;;18.58;;
13855;SDS011;6998;53.608;9.958;2023-07-29T07:56:20;20.48;;;18.42;;
13855;SDS011;6998;53.608;9.958;2023-07-29T07:58:46;19.20;;;17.35;;
13855;SDS011;6998;53.608;9.958;2023-07-29T08:01:13;19.23;;;17.42;;
13855;SDS011;6998;53.608;9.958;2023-07-29T08:03:40;18.70;;;16.80;;
13855;SDS011;6998;53.608;9.958;2023-07-29T08:06:06;19.95;;;17.77;;
13855;SDS011;6998;53.608;9.958;2023-07-29T08:08:33;17.27;;;15.63;;
13855;SDS011;6998;53.608;9.958;2023-07-29T08:11:00;17.75;;;16.08;;
13855;SDS011;6998;53.608;9.958;2023-07-29T08:13:28;20.25;;;18.23;;
13855;SDS011;6998;53.608;9.958;2023-07-29T08:15:54;17.70;;;16.02;;
13855;SDS011;6998;53.608;9.958;2023-07-29T08:18:21;19.40;;;17.38;;
13855;SDS011;6998;53.608;9.958;2023-07-29T08:20:51;17.33;;;15.48;;
13855;SDS011;6998;53.608;9.958;2023-07-29T08:23:19;18.77;;;16.88;;
13855;SDS011;6998;53.608;9.958;2023-07-29T08:25:50;20.05;;;18.17;;
13855;SDS011;6998;53.608;9.958;2023-07-29T08:28:18;19.85;;;17.95;;
13855;SDS011;6998;53.608;9.958;2023-07-29T08:30:46;17.77;;;16.17;;
13855;SDS011;6998;53.608;9.958;2023-07-29T08:33:12;19.50;;;17.52;;
13855;SDS011;6998;53.608;9.958;2023-07-29T08:35:39;20.25;;;18.27;;
13855;SDS011;6998;53.608;9.958;2023-07-29T08:38:06;20.92;;;18.75;;
13855;SDS011;6998;53.608;9.958;2023-07-29T08:40:34;20.05;;;17.95;;
13855;SDS011;6998;53.608;9.958;2023-07-29T08:43:01;20.38;;;18.33;;
13855;SDS011;6998;53.608;9.958;2023-07-29T08:45:30;20.25;;;18.23;;
13855;SDS011;6998;53.608;9.958;2023-07-29T08:48:03;18.63;;;16.83;;
13855;SDS011;6998;53.608;9.958;2023-07-29T08:50:34;20.67;;;18.67;;
13855;SDS011;6998;53.608;9.958;2023-07-29T08:53:03;19.20;;;17.50;;
13855;SDS011;6998;53.608;9.958;2023-07-29T08:55:31;21.00;;;19.00;;
13855;SDS011;6998;53.608;9.958;2023-07-29T08:57:58;19.48;;;17.67;;
13855;SDS011;6998;53.608;9.958;2023-07-29T09:00:27;20.25;;;18.38;;
13855;SDS011;6998;53.608;9.958;2023-07-29T09:02:54;19.45;;;17.65;;
13855;SDS011;6998;53.608;9.958;2023-07-29T09:05:24;21.25;;;18.83;;
13855;SDS011;6998;53.608;9.958;2023-07-29T09:07:51;18.98;;;17.25;;
13855;SDS011;6998;53.608;9.958;2023-07-29T09:10:21;18.42;;;16.52;;
13855;SDS011;6998;53.608;9.958;2023-07-29T09:12:49;18.23;;;16.48;;
13855;SDS011;6998;53.608;9.958;2023-07-29T09:15:25;17.25;;;15.75;;
13855;SDS011;6998;53.608;9.958;2023-07-29T09:17:53;18.05;;;16.35;;
13855;SDS011;6998;53.608;9.958;2023-07-29T09:20:24;18.30;;;16.60;;
13855;SDS011;6998;53.608;9.958;2023-07-29T09:22:52;17.38;;;15.73;;
13855;SDS011;6998;53.608;9.958;2023-07-29T09:25:24;16.55;;;15.05;;
13855;SDS011;6998;53.608;9.958;2023-07-29T09:27:51;16.58;;;15.10;;
13855;SDS011;6998;53.608;9.958;2023-07-29T09:30:17;16.83;;;15.13;;
13855;SDS011;6998;53.608;9.958;2023-07-29T09:32:44;16.50;;;14.90;;
13855;SDS011;6998;53.608;9.958;2023-07-29T09:35:11;14.93;;;13.50;;
13855;SDS011;6998;53.608;9.958;2023-07-29T09:37:39;13.27;;;12.07;;
13855;SDS011;6998;53.608;9.958;2023-07-29T09:40:06;15.57;;;14.07;;
13855;SDS011;6998;53.608;9.958;2023-07-29T09:42:40;13.48;;;12.18;;
13855;SDS011;6998;53.608;9.958;2023-07-29T09:45:14;14.95;;;13.45;;
13855;SDS011;6998;53.608;9.958;2023-07-29T09:47:45;14.65;;;13.15;;
13855;SDS011;6998;53.608;9.958;2023-07-29T09:50:13;12.60;;;11.40;;
13855;SDS011;6998;53.608;9.958;2023-07-29T09:52:41;12.00;;;10.90;;
13855;SDS011;6998;53.608;9.958;2023-07-29T09:55:08;11.60;;;10.65;;
13855;SDS011;6998;53.608;9.958;2023-07-29T09:57:36;10.90;;;10.00;;
13855;SDS011;6998;53.608;9.958;2023-07-29T10:00:04;9.93;;;9.13;;
13855;SDS011;6998;53.608;9.958;2023-07-29T10:02:36;9.80;;;9.00;;
13855;SDS011;6998;53.608;9.958;2023-07-29T10:05:03;9.13;;;8.35;;
13855;SDS011;6998;53.608;9.958;2023-07-29T10:07:32;8.85;;;7.95;;
13855;SDS011;6998;53.608;9.958;2023-07-29T10:10:00;8.38;;;6.60;;
13855;SDS011;6998;53.608;9.958;2023-07-29T10:12:30;7.45;;;6.85;;
13855;SDS011;6998;53.608;9.958;2023-07-29T10:14:58;8.10;;;7.22;;
13855;SDS011;6998;53.608;9.958;2023-07-29T10:17:26;7.18;;;6.57;;
13855;SDS011;6998;53.608;9.958;2023-07-29T10:19:53;7.15;;;6.53;;
13855;SDS011;6998;53.608;9.958;2023-07-29T10:22:21;7.10;;;6.00;;
13855;SDS011;6998;53.608;9.958;2023-07-29T10:24:53;6.65;;;5.57;;
13855;SDS011;6998;53.608;9.958;2023-07-29T10:27:23;4.95;;;4.45;;
13855;SDS011;6998;53.608;9.958;2023-07-29T10:29:52;6.03;;;5.15;;
13855;SDS011;6998;53.608;9.958;2023-07-29T10:32:22;6.22;;;5.72;;
13855;SDS011;6998;53.608;9.958;2023-07-29T10:34:51;5.70;;;5.20;;
13855;SDS011;6998;53.608;9.958;2023-07-29T10:37:18;5.85;;;5.40;;
13855;SDS011;6998;53.608;9.958;2023-07-29T10:39:51;6.70;;;5.25;;
13855;SDS011;6998;53.608;9.958;2023-07-29T10:42:18;5.15;;;4.75;;
13855;SDS011;6998;53.608;9.958;2023-07-29T10:44:47;5.10;;;4.43;;
13855;SDS011;6998;53.608;9.958;2023-07-29T10:47:18;4.55;;;4.15;;
13855;SDS011;6998;53.608;9.958;2023-07-29T10:49:47;4.55;;;4.10;;
13855;SDS011;6998;53.608;9.958;2023-07-29T10:52:15;4.85;;;4.45;;
13855;SDS011;6998;53.608;9.958;2023-07-29T10:54:54;4.97;;;4.57;;
13855;SDS011;6998;53.608;9.958;2023-07-29T10:57:30;4.72;;;4.32;;
13855;SDS011;6998;53.608;9.958;2023-07-29T11:00:00;4.70;;;4.30;;
13855;SDS011;6998;53.608;9.958;2023-07-29T11:02:28;4.25;;;3.95;;
13855;SDS011;6998;53.608;9.958;2023-07-29T11:04:56;4.00;;;3.70;;
13855;SDS011;6998;53.608;9.958;2023-07-29T11:07:24;3.80;;;3.50;;
13855;SDS011;6998;53.608;9.958;2023-07-29T11:09:57;3.88;;;3.35;;
13855;SDS011;6998;53.608;9.958;2023-07-29T11:12:41;3.17;;;2.97;;
13855;SDS011;6998;53.608;9.958;2023-07-29T11:17:56;4.65;;;3.00;;
13855;SDS011;6998;53.608;9.958;2023-07-29T11:20:24;3.75;;;2.50;;
13855;SDS011;6998;53.608;9.958;2023-07-29T11:22:52;3.08;;;2.38;;
13855;SDS011;6998;53.608;9.958;2023-07-29T11:25:20;2.40;;;2.20;;
13855;SDS011;6998;53.608;9.958;2023-07-29T11:27:48;3.47;;;2.17;;
13855;SDS011;6998;53.608;9.958;2023-07-29T11:30:16;2.47;;;2.20;;
13855;SDS011;6998;53.608;9.958;2023-07-29T11:32:45;2.53;;;2.30;;
13855;SDS011;6998;53.608;9.958;2023-07-29T11:35:13;2.67;;;2.25;;
13855;SDS011;6998;53.608;9.958;2023-07-29T11:37:41;2.40;;;2.13;;
13855;SDS011;6998;53.608;9.958;2023-07-29T11:40:12;2.38;;;2.20;;
13855;SDS011;6998;53.608;9.958;2023-07-29T11:42:40;2.90;;;2.70;;
13855;SDS011;6998;53.608;9.958;2023-07-29T11:45:07;2.85;;;2.55;;
13855;SDS011;6998;53.608;9.958;2023-07-29T11:47:35;4.05;;;2.53;;
13855;SDS011;6998;53.608;9.958;2023-07-29T11:50:04;4.38;;;2.50;;
13855;SDS011;6998;53.608;9.958;2023-07-29T11:52:31;3.40;;;2.58;;
13855;SDS011;6998;53.608;9.958;2023-07-29T11:54:59;2.83;;;2.50;;
13855;SDS011;6998;53.608;9.958;2023-07-29T11:57:27;2.72;;;2.53;;
13855;SDS011;6998;53.608;9.958;2023-07-29T11:59:54;2.92;;;2.72;;
13855;SDS011;6998;53.608;9.958;2023-07-29T12:02:20;2.90;;;2.70;;
13855;SDS011;6998;53.608;9.958;2023-07-29T12:04:49;3.20;;;2.90;;
13855;SDS011;6998;53.608;9.958;2023-07-29T12:07:18;3.08;;;2.80;;
13855;SDS011;6998;53.608;9.958;2023-07-29T12:09:45;2.50;;;2.30;;
13855;SDS011;6998;53.608;9.958;2023-07-29T12:12:12;3.92;;;2.83;;
13855;SDS011;6998;53.608;9.958;2023-07-29T12:14:43;2.80;;;2.60;;
13855;SDS011;6998;53.608;9.958;2023-07-29T12:17:10;3.22;;;2.50;;
13855;SDS011;6998;53.608;9.958;2023-07-29T12:19:37;2.33;;;2.13;;
13855;SDS011;6998;53.608;9.958;2023-07-29T12:22:06;2.45;;;2.25;;
13855;SDS011;6998;53.608;9.958;2023-07-29T12:24:35;2.40;;;2.20;;
13855;SDS011;6998;53.608;9.958;2023-07-29T12:27:03;3.03;;;2.30;;
13855;SDS011;6998;53.608;9.958;2023-07-29T12:29:30;3.53;;;2.38;;
13855;SDS011;6998;53.608;9.958;2023-07-29T12:31:57;2.95;;;2.40;;
13855;SDS011;6998;53.608;9.958;2023-07-29T12:34:25;2.58;;;1.80;;
13855;SDS011;6998;53.608;9.958;2023-07-29T12:36:53;2.10;;;2.00;;
13855;SDS011;6998;53.608;9.958;2023-07-29T12:39:21;2.10;;;1.90;;
13855;SDS011;6998;53.608;9.958;2023-07-29T12:41:51;3.03;;;1.90;;
13855;SDS011;6998;53.608;9.958;2023-07-29T12:44:19;2.17;;;1.40;;
13855;SDS011;6998;53.608;9.958;2023-07-29T12:46:46;2.00;;;1.65;;
13855;SDS011;6998;53.608;9.958;2023-07-29T12:49:12;1.90;;;1.80;;
13855;SDS011;6998;53.608;9.958;2023-07-29T12:51:39;1.60;;;1.50;;
13855;SDS011;6998;53.608;9.958;2023-07-29T12:54:07;1.80;;;1.70;;
13855;SDS011;6998;53.608;9.958;2023-07-29T12:56:33;3.00;;;1.85;;
13855;SDS011;6998;53.608;9.958;2023-07-29T12:59:02;1.85;;;1.63;;
13855;SDS011;6998;53.608;9.958;2023-07-29T13:01:28;2.83;;;1.77;;
13855;SDS011;6998;53.608;9.958;2023-07-29T13:03:55;1.65;;;1.40;;
13855;SDS011;6998;53.608;9.958;2023-07-29T13:06:22;1.90;;;1.70;;
13855;SDS011;6998;53.608;9.958;2023-07-29T13:08:49;1.70;;;1.60;;
13855;SDS011;6998;53.608;9.958;2023-07-29T13:11:16;2.42;;;1.50;;
13855;SDS011;6998;53.608;9.958;2023-07-29T13:13:43;1.50;;;1.40;;
13855;SDS011;6998;53.608;9.958;2023-07-29T13:16:11;1.40;;;1.30;;
13855;SDS011;6998;53.608;9.958;2023-07-29T13:18:38;1.90;;;1.70;;
13855;SDS011;6998;53.608;9.958;2023-07-29T13:21:06;1.70;;;1.60;;
13855;SDS011;6998;53.608;9.958;2023-07-29T13:23:32;2.10;;;1.90;;
13855;SDS011;6998;53.608;9.958;2023-07-29T13:25:59;1.52;;;1.42;;
13855;SDS011;6998;53.608;9.958;2023-07-29T13:28:26;2.08;;;1.88;;
13855;SDS011;6998;53.608;9.958;2023-07-29T13:30:53;2.85;;;1.70;;
13855;SDS011;6998;53.608;9.958;2023-07-29T13:33:21;2.40;;;1.70;;
13855;SDS011;6998;53.608;9.958;2023-07-29T13:35:47;2.28;;;2.08;;
13855;SDS011;6998;53.608;9.958;2023-07-29T13:38:15;3.78;;;1.73;;
13855;SDS011;6998;53.608;9.958;2023-07-29T13:40:42;3.55;;;1.73;;
13855;SDS011;6998;53.608;9.958;2023-07-29T13:43:08;2.38;;;1.50;;
13855;SDS011;6998;53.608;9.958;2023-07-29T13:45:35;2.65;;;1.75;;
13855;SDS011;6998;53.608;9.958;2023-07-29T13:48:02;1.80;;;1.67;;
13855;SDS011;6998;53.608;9.958;2023-07-29T13:50:31;2.38;;;1.60;;
13855;SDS011;6998;53.608;9.958;2023-07-29T13:52:57;1.65;;;1.55;;
13855;SDS011;6998;53.608;9.958;2023-07-29T13:55:24;2.55;;;1.60;;
13855;SDS011;6998;53.608;9.958;2023-07-29T13:57:52;2.03;;;1.80;;
13855;SDS011;6998;53.608;9.958;2023-07-29T14:00:19;2.92;;;1.60;;
13855;SDS011;6998;53.608;9.958;2023-07-29T14:02:46;3.72;;;1.70;;
13855;SDS011;6998;53.608;9.958;2023-07-29T14:05:13;2.72;;;1.90;;
13855;SDS011;6998;53.608;9.958;2023-07-29T14:07:41;1.80;;;1.70;;
13855;SDS011;6998;53.608;9.958;2023-07-29T14:10:08;2.47;;;1.67;;
13855;SDS011;6998;53.608;9.958;2023-07-29T14:12:35;1.70;;;1.60;;
13855;SDS011;6998;53.608;9.958;2023-07-29T14:15:02;2.67;;;1.58;;
13855;SDS011;6998;53.608;9.958;2023-07-29T14:17:30;2.58;;;2.00;;
13855;SDS011;6998;53.608;9.958;2023-07-29T14:19:56;2.20;;;1.70;;
13855;SDS011;6998;53.608;9.958;2023-07-29T14:22:23;2.20;;;1.80;;
13855;SDS011;6998;53.608;9.958;2023-07-29T14:24:51;2.95;;;1.80;;
13855;SDS011;6998;53.608;9.958;2023-07-29T14:27:18;1.65;;;1.55;;
13855;SDS011;6998;53.608;9.958;2023-07-29T14:29:45;2.38;;;1.70;;
13855;SDS011;6998;53.608;9.958;2023-07-29T14:32:11;5.20;;;4.80;;
13855;SDS011;6998;53.608;9.958;2023-07-29T14:34:38;2.20;;;1.50;;
13855;SDS011;6998;53.608;9.958;2023-07-29T14:37:05;3.35;;;1.70;;
13855;SDS011;6998;53.608;9.958;2023-07-29T14:39:32;3.28;;;1.90;;
13855;SDS011;6998;53.608;9.958;2023-07-29T14:42:00;1.80;;;1.70;;
13855;SDS011;6998;53.608;9.958;2023-07-29T14:44:27;2.90;;;1.80;;
13855;SDS011;6998;53.608;9.958;2023-07-29T14:46:53;1.90;;;1.60;;
13855;SDS011;6998;53.608;9.958;2023-07-29T14:49:20;2.10;;;1.90;;
13855;SDS011;6998;53.608;9.958;2023-07-29T14:51:47;3.53;;;1.63;;
13855;SDS011;6998;53.608;9.958;2023-07-29T14:54:14;2.00;;;1.80;;
13855;SDS011;6998;53.608;9.958;2023-07-29T14:56:40;2.53;;;1.73;;